Time;durP1;ratioP1;P1;durP2;ratioP2;P2;SDS_P1;SDS_P2;PMS_P1;PMS_P2;Temp;Humidity;BMP_temperature;BMP_pressure;BME280_temperature;BME280_humidity;BME280_pressure;Samples;Min_cycle;Max_cycle;Signal;HPM_P1;HPM_P2
2022/09/15 00:01:41;;;;;;;5.93;1.38;;;;;;;;;;5032568;28;20041;-49
2022/09/15 00:04:11;;;;;;;3.70;1.20;;;;;;;;;;5032809;28;20136;-51
2022/09/15 00:06:38;;;;;;;3.85;1.20;;;;;;;;;;5033627;28;20081;-49
2022/09/15 00:09:05;;;;;;;5.38;1.10;;;;;;;;;;5036637;28;20054;-50
2022/09/15 00:11:38;;;;;;;3.88;1.40;;;;;;;;;;5036721;28;20045;-49
2022/09/15 00:14:14;;;;;;;5.10;1.00;;;;;;;;;;5036653;28;20107;-49
2022/09/15 00:16:43;;;;;;;4.07;1.00;;;;;;;;;;5035927;28;20355;-48
2022/09/15 00:19:10;;;;;;;2.70;1.10;;;;;;;;;;5036806;28;20060;-50
2022/09/15 00:21:40;;;;;;;2.42;0.80;;;;;;;;;;5036557;28;20046;-49
2022/09/15 00:24:08;;;;;;;3.30;1.13;;;;;;;;;;5036747;28;20049;-51
2022/09/15 00:26:49;;;;;;;4.38;1.13;;;;;;;;;;5036334;28;20061;-50
2022/09/15 00:29:17;;;;;;;5.65;1.20;;;;;;;;;;5040331;28;20049;-48
2022/09/15 00:31:46;;;;;;;2.90;0.80;;;;;;;;;;5042094;28;20076;-52
2022/09/15 00:34:15;;;;;;;3.45;1.10;;;;;;;;;;5048340;28;20132;-49
2022/09/15 00:36:44;;;;;;;3.97;1.10;;;;;;;;;;5038303;28;20056;-49
2022/09/15 00:39:14;;;;;;;7.70;0.95;;;;;;;;;;5045126;28;20732;-51
2022/09/15 00:41:48;;;;;;;4.28;1.38;;;;;;;;;;5038349;28;20347;-50
2022/09/15 00:44:44;;;;;;;4.43;1.30;;;;;;;;;;5035921;28;20485;-48
2022/09/15 00:47:13;;;;;;;3.80;1.48;;;;;;;;;;5040983;28;20057;-50
2022/09/15 00:49:42;;;;;;;5.70;1.17;;;;;;;;;;5035686;28;20481;-52
2022/09/15 00:52:12;;;;;;;7.28;1.50;;;;;;;;;;5036611;28;20426;-52
2022/09/15 00:54:51;;;;;;;4.65;1.10;;;;;;;;;;5044302;28;20053;-48
2022/09/15 00:57:22;;;;;;;3.20;1.33;;;;;;;;;;5035987;28;20157;-49
2022/09/15 00:59:52;;;;;;;4.40;1.45;;;;;;;;;;5036080;28;20124;-49
2022/09/15 01:02:24;;;;;;;5.55;1.30;;;;;;;;;;5034404;28;20077;-48
2022/09/15 01:05:00;;;;;;;5.88;1.40;;;;;;;;;;5035581;28;20409;-52
2022/09/15 01:07:31;;;;;;;3.63;1.13;;;;;;;;;;5025663;28;20142;-51
2022/09/15 01:10:03;;;;;;;3.78;1.20;;;;;;;;;;5035507;28;20053;-50
2022/09/15 01:12:35;;;;;;;4.43;1.33;;;;;;;;;;5035400;28;20049;-50
2022/09/15 01:15:05;;;;;;;4.32;1.13;;;;;;;;;;5035697;28;20055;-50
2022/09/15 01:17:40;;;;;;;4.95;1.25;;;;;;;;;;5034479;28;20053;-49
2022/09/15 01:20:21;;;;;;;4.37;1.07;;;;;;;;;;5035318;28;20136;-48
2022/09/15 01:23:02;;;;;;;4.25;1.25;;;;;;;;;;5035284;28;20064;-49
2022/09/15 01:25:42;;;;;;;3.97;1.48;;;;;;;;;;5035481;28;20059;-48
2022/09/15 01:28:30;;;;;;;5.10;1.20;;;;;;;;;;5035503;28;20115;-48
2022/09/15 01:31:08;;;;;;;4.45;1.70;;;;;;;;;;5034954;28;20057;-48
2022/09/15 01:33:49;;;;;;;5.50;1.27;;;;;;;;;;5034942;28;20085;-50
2022/09/15 01:36:22;;;;;;;2.45;1.35;;;;;;;;;;5035946;28;20050;-51
2022/09/15 01:38:54;;;;;;;5.82;1.33;;;;;;;;;;5045070;28;20137;-51
2022/09/15 01:41:28;;;;;;;4.95;1.45;;;;;;;;;;5035465;28;20041;-50
2022/09/15 01:43:59;;;;;;;2.35;1.00;;;;;;;;;;5015512;28;20058;-50
2022/09/15 01:46:33;;;;;;;6.50;1.35;;;;;;;;;;5031787;28;20057;-48
2022/09/15 01:49:06;;;;;;;3.20;1.48;;;;;;;;;;5024690;28;20093;-51
2022/09/15 01:51:33;;;;;;;4.63;1.52;;;;;;;;;;5034237;28;20506;-48
2022/09/15 01:54:02;;;;;;;4.13;1.25;;;;;;;;;;5042794;28;20049;-51
2022/09/15 01:56:28;;;;;;;3.28;1.17;;;;;;;;;;5034624;28;20052;-51
2022/09/15 01:58:58;;;;;;;5.78;1.65;;;;;;;;;;5034792;28;20055;-51
2022/09/15 02:01:31;;;;;;;4.90;1.45;;;;;;;;;;5034816;28;20049;-49
2022/09/15 02:04:05;;;;;;;5.30;1.55;;;;;;;;;;5031399;28;20057;-48
2022/09/15 02:06:36;;;;;;;2.75;1.10;;;;;;;;;;5033612;28;20148;-51
2022/09/15 02:09:08;;;;;;;4.15;1.30;;;;;;;;;;5021455;28;20061;-51
2022/09/15 02:11:36;;;;;;;5.78;1.52;;;;;;;;;;5034272;28;20053;-50
2022/09/15 02:14:10;;;;;;;6.25;1.40;;;;;;;;;;5034329;28;20061;-48
2022/09/15 02:16:46;;;;;;;4.80;1.58;;;;;;;;;;5033903;28;20115;-49
2022/09/15 02:19:30;;;;;;;2.67;0.95;;;;;;;;;;5034231;28;20128;-49
2022/09/15 02:22:21;;;;;;;4.40;1.40;;;;;;;;;;5033953;28;20420;-48
2022/09/15 02:24:59;;;;;;;4.63;1.52;;;;;;;;;;5034279;28;20123;-47
2022/09/15 02:27:30;;;;;;;7.05;1.42;;;;;;;;;;5033386;28;20357;-51
2022/09/15 02:30:02;;;;;;;5.55;1.60;;;;;;;;;;5034297;28;20057;-48
2022/09/15 02:32:40;;;;;;;7.63;1.50;;;;;;;;;;5033723;28;20489;-48
2022/09/15 02:35:07;;;;;;;3.22;1.80;;;;;;;;;;5025334;28;20068;-47
2022/09/15 02:37:40;;;;;;;4.88;1.17;;;;;;;;;;5043506;28;20071;-49
2022/09/15 02:40:12;;;;;;;3.45;1.30;;;;;;;;;;5021390;28;20505;-49
2022/09/15 02:42:41;;;;;;;5.40;1.67;;;;;;;;;;5034030;28;20056;-50
2022/09/15 02:45:10;;;;;;;5.13;1.15;;;;;;;;;;5033562;28;20178;-49
2022/09/15 02:47:40;;;;;;;5.53;1.40;;;;;;;;;;5033951;28;20057;-48
2022/09/15 02:50:08;;;;;;;8.38;2.15;;;;;;;;;;5033569;28;20049;-49
2022/09/15 02:52:38;;;;;;;3.13;1.20;;;;;;;;;;5038421;28;20445;-47
2022/09/15 02:55:14;;;;;;;8.00;1.98;;;;;;;;;;5035864;28;20132;-47
2022/09/15 02:57:42;;;;;;;3.83;1.30;;;;;;;;;;5033761;28;20095;-48
2022/09/15 03:00:18;;;;;;;4.18;1.10;;;;;;;;;;5033551;28;20053;-48
2022/09/15 03:02:48;;;;;;;5.15;1.38;;;;;;;;;;5033159;28;20045;-49
2022/09/15 03:05:18;;;;;;;2.97;1.30;;;;;;;;;;5033546;28;20045;-51
2022/09/15 03:08:01;;;;;;;5.63;1.70;;;;;;;;;;5026074;28;20045;-48
2022/09/15 03:10:31;;;;;;;6.47;1.30;;;;;;;;;;5033182;28;20107;-50
2022/09/15 03:13:01;;;;;;;5.45;1.63;;;;;;;;;;5033454;28;20049;-49
2022/09/15 03:15:28;;;;;;;3.55;1.20;;;;;;;;;;5033238;28;20125;-49
2022/09/15 03:17:55;;;;;;;5.00;1.55;;;;;;;;;;5032855;28;20470;-48
2022/09/15 03:20:24;;;;;;;2.53;1.33;;;;;;;;;;5033203;28;20128;-47
2022/09/15 03:23:02;;;;;;;6.65;1.10;;;;;;;;;;5033410;28;20049;-49
2022/09/15 03:28:10;;;;;;;6.20;1.80;;;;;;;;;;5033269;28;20061;-49
2022/09/15 03:33:21;;;;;;;4.78;1.45;;;;;;;;;;5033182;28;20054;-50
2022/09/15 03:35:58;;;;;;;5.22;1.63;;;;;;;;;;5032624;28;20702;-49
2022/09/15 03:38:40;;;;;;;5.30;1.67;;;;;;;;;;5045366;28;20089;-50
2022/09/15 03:41:08;;;;;;;8.52;1.88;;;;;;;;;;5032861;28;20059;-51
2022/09/15 03:43:40;;;;;;;14.35;1.67;;;;;;;;;;5032972;28;20041;-51
2022/09/15 03:46:11;;;;;;;5.32;1.48;;;;;;;;;;5033048;28;20053;-49
2022/09/15 03:48:39;;;;;;;6.18;1.23;;;;;;;;;;5019879;28;20053;-51
2022/09/15 03:51:08;;;;;;;4.30;1.40;;;;;;;;;;5032347;28;20057;-47
2022/09/15 03:53:44;;;;;;;4.05;1.60;;;;;;;;;;5040487;28;20053;-51
2022/09/15 03:56:20;;;;;;;2.00;0.95;;;;;;;;;;5032969;28;20049;-50
2022/09/15 03:58:50;;;;;;;4.10;1.30;;;;;;;;;;5032409;28;20369;-49
2022/09/15 04:01:20;;;;;;;3.33;1.45;;;;;;;;;;5032481;28;20057;-51
2022/09/15 04:03:48;;;;;;;6.00;1.25;;;;;;;;;;5032541;28;20128;-51
2022/09/15 04:06:16;;;;;;;5.97;1.20;;;;;;;;;;5027864;28;20168;-47
2022/09/15 04:08:58;;;;;;;2.75;1.27;;;;;;;;;;5030603;28;20052;-51
2022/09/15 04:11:29;;;;;;;6.32;1.63;;;;;;;;;;5032519;28;20045;-49
2022/09/15 04:13:56;;;;;;;4.07;1.58;;;;;;;;;;5031440;28;20129;-47
2022/09/15 04:16:27;;;;;;;5.15;2.20;;;;;;;;;;5032483;28;20066;-47
2022/09/15 04:18:55;;;;;;;4.60;1.45;;;;;;;;;;5032466;28;20104;-48
2022/09/15 04:21:24;;;;;;;6.80;1.80;;;;;;;;;;5032527;28;20069;-50
2022/09/15 04:24:07;;;;;;;3.63;1.63;;;;;;;;;;5032359;28;20091;-51
2022/09/15 04:26:34;;;;;;;4.03;1.77;;;;;;;;;;5032444;28;20493;-47
2022/09/15 04:29:01;;;;;;;6.78;1.60;;;;;;;;;;5032733;28;20041;-48
2022/09/15 04:31:29;;;;;;;3.65;1.92;;;;;;;;;;5032465;28;20057;-50
2022/09/15 04:33:59;;;;;;;9.35;1.95;;;;;;;;;;5032490;28;20054;-51
2022/09/15 04:36:28;;;;;;;6.45;1.95;;;;;;;;;;5034643;28;20079;-50
2022/09/15 04:39:09;;;;;;;5.93;1.60;;;;;;;;;;5041888;28;20049;-48
2022/09/15 04:41:38;;;;;;;8.35;1.50;;;;;;;;;;5032527;28;20442;-49
2022/09/15 04:44:05;;;;;;;7.68;1.63;;;;;;;;;;5032108;28;20355;-50
2022/09/15 04:46:33;;;;;;;7.95;1.73;;;;;;;;;;5032346;28;20055;-49
2022/09/15 04:49:08;;;;;;;5.10;1.70;;;;;;;;;;5032144;28;20501;-48
2022/09/15 04:51:34;;;;;;;5.05;1.50;;;;;;;;;;5034206;28;20046;-49
2022/09/15 04:54:07;;;;;;;3.83;1.60;;;;;;;;;;5044017;28;20069;-50
2022/09/15 04:56:35;;;;;;;6.03;1.50;;;;;;;;;;5035562;28;20055;-49
2022/09/15 04:59:04;;;;;;;6.88;2.42;;;;;;;;;;5035803;28;20382;-49
2022/09/15 05:01:34;;;;;;;8.85;3.15;;;;;;;;;;5035351;28;20049;-51
2022/09/15 05:04:02;;;;;;;8.93;2.45;;;;;;;;;;5035754;28;20075;-49
2022/09/15 05:06:31;;;;;;;5.60;2.38;;;;;;;;;;5035773;28;20049;-48
2022/09/15 05:08:59;;;;;;;9.23;2.45;;;;;;;;;;5035650;28;20053;-51
2022/09/15 05:11:33;;;;;;;8.43;1.80;;;;;;;;;;5035763;28;20114;-49
2022/09/15 05:14:00;;;;;;;5.10;1.70;;;;;;;;;;5035120;28;20057;-48
2022/09/15 05:16:27;;;;;;;7.97;1.75;;;;;;;;;;5035182;28;20129;-48
2022/09/15 05:18:55;;;;;;;7.20;1.60;;;;;;;;;;5035332;28;20076;-49
2022/09/15 05:21:31;;;;;;;3.50;1.45;;;;;;;;;;5035283;28;20378;-48
2022/09/15 05:23:58;;;;;;;5.85;1.02;;;;;;;;;;5034874;28;20526;-48
2022/09/15 05:26:40;;;;;;;6.28;1.48;;;;;;;;;;5035425;28;20053;-49
2022/09/15 05:29:07;;;;;;;6.63;1.73;;;;;;;;;;5035174;28;20046;-49
2022/09/15 05:31:36;;;;;;;6.80;1.77;;;;;;;;;;5035124;28;20049;-47
2022/09/15 05:34:12;;;;;;;7.60;1.80;;;;;;;;;;5035098;28;20049;-48
2022/09/15 05:36:40;;;;;;;7.70;1.60;;;;;;;;;;5038969;28;20057;-48
2022/09/15 05:39:09;;;;;;;4.50;1.40;;;;;;;;;;5043015;28;20085;-49
2022/09/15 05:41:48;;;;;;;7.95;2.00;;;;;;;;;;5035335;28;20050;-47
2022/09/15 05:44:16;;;;;;;3.53;1.50;;;;;;;;;;5035266;28;20184;-50
2022/09/15 05:46:45;;;;;;;6.00;2.10;;;;;;;;;;5034880;28;20083;-48
2022/09/15 05:49:14;;;;;;;5.28;1.98;;;;;;;;;;5034649;28;20481;-48
2022/09/15 05:51:41;;;;;;;5.53;1.48;;;;;;;;;;5034547;28;20045;-48
2022/09/15 05:54:07;;;;;;;3.17;1.38;;;;;;;;;;5042487;28;20057;-49
2022/09/15 05:56:34;;;;;;;5.32;1.30;;;;;;;;;;5034662;28;20046;-48
2022/09/15 05:59:07;;;;;;;4.47;1.52;;;;;;;;;;5034673;28;20545;-48
2022/09/15 06:01:34;;;;;;;9.38;3.42;;;;;;;;;;5049322;28;20500;-47
2022/09/15 06:04:03;;;;;;;4.28;1.58;;;;;;;;;;5031946;28;20049;-47
2022/09/15 06:06:33;;;;;;;4.97;1.48;;;;;;;;;;5031719;28;20061;-47
2022/09/15 06:09:00;;;;;;;4.75;1.17;;;;;;;;;;5020670;28;20057;-48
2022/09/15 06:11:27;;;;;;;3.85;1.50;;;;;;;;;;5038258;28;20051;-48
2022/09/15 06:13:56;;;;;;;5.85;1.20;;;;;;;;;;5038629;28;20038;-47
2022/09/15 06:16:33;;;;;;;5.88;1.40;;;;;;;;;;5034401;28;20061;-48
2022/09/15 06:19:01;;;;;;;7.07;1.25;;;;;;;;;;5033641;28;20124;-48
2022/09/15 06:21:30;;;;;;;4.38;1.13;;;;;;;;;;5037786;28;20445;-48
2022/09/15 06:23:57;;;;;;;3.90;1.63;;;;;;;;;;5040835;28;20541;-49
2022/09/15 06:26:27;;;;;;;4.25;1.25;;;;;;;;;;5035996;28;20128;-48
2022/09/15 06:28:57;;;;;;;5.35;1.58;;;;;;;;;;5035769;28;20064;-51
2022/09/15 06:31:28;;;;;;;8.40;1.45;;;;;;;;;;5023017;28;20828;-47
2022/09/15 06:33:56;;;;;;;5.15;1.92;;;;;;;;;;5037297;28;20061;-46
2022/09/15 06:36:24;;;;;;;3.85;1.25;;;;;;;;;;5033702;28;20056;-46
2022/09/15 06:38:53;;;;;;;7.57;1.50;;;;;;;;;;5039237;28;20096;-47
2022/09/15 06:41:23;;;;;;;3.17;1.58;;;;;;;;;;5036716;28;20112;-46
2022/09/15 06:43:54;;;;;;;6.57;1.73;;;;;;;;;;5040109;28;20450;-49
2022/09/15 06:46:23;;;;;;;4.70;1.42;;;;;;;;;;5029039;28;20132;-48
2022/09/15 06:48:59;;;;;;;8.18;1.63;;;;;;;;;;5033955;28;20057;-47
2022/09/15 06:51:34;;;;;;;2.03;0.93;;;;;;;;;;5031154;28;20052;-48
2022/09/15 06:54:14;;;;;;;3.95;1.40;;;;;;;;;;5046299;28;20141;-50
2022/09/15 06:56:43;;;;;;;8.45;1.23;;;;;;;;;;5037984;28;20057;-49
2022/09/15 06:59:11;;;;;;;3.33;1.27;;;;;;;;;;5040328;28;20068;-46
2022/09/15 07:01:37;;;;;;;8.57;1.58;;;;;;;;;;5037648;28;20049;-48
2022/09/15 07:04:08;;;;;;;7.68;1.40;;;;;;;;;;5034240;28;20053;-48
2022/09/15 07:06:37;;;;;;;2.63;0.90;;;;;;;;;;5032133;28;20072;-50
2022/09/15 07:09:04;;;;;;;2.25;1.00;;;;;;;;;;5036075;28;20072;-50
2022/09/15 07:11:35;;;;;;;4.63;1.33;;;;;;;;;;5034971;28;20057;-48
2022/09/15 07:14:14;;;;;;;3.28;1.20;;;;;;;;;;5036022;28;20046;-48
2022/09/15 07:16:43;;;;;;;4.50;1.23;;;;;;;;;;5032374;28;20054;-48
2022/09/15 07:19:21;;;;;;;5.50;1.30;;;;;;;;;;5039811;28;20045;-46
2022/09/15 07:21:49;;;;;;;4.88;1.35;;;;;;;;;;5044879;28;20061;-47
2022/09/15 07:24:19;;;;;;;2.80;1.10;;;;;;;;;;5036163;28;20368;-47
2022/09/15 07:26:47;;;;;;;3.05;0.90;;;;;;;;;;5033808;28;20061;-46
2022/09/15 07:29:16;;;;;;;2.08;0.93;;;;;;;;;;5047062;28;20041;-47
2022/09/15 07:31:46;;;;;;;3.13;0.95;;;;;;;;;;5044165;28;20049;-47
2022/09/15 07:34:13;;;;;;;3.80;0.80;;;;;;;;;;5039003;28;20049;-48
2022/09/15 07:36:41;;;;;;;4.13;1.23;;;;;;;;;;5039742;28;20052;-47
2022/09/15 07:39:07;;;;;;;6.82;1.00;;;;;;;;;;5041545;28;20053;-47
2022/09/15 07:41:36;;;;;;;6.68;0.93;;;;;;;;;;5033746;28;20065;-48
2022/09/15 07:44:09;;;;;;;2.17;0.90;;;;;;;;;;5025288;28;20443;-48
2022/09/15 07:46:36;;;;;;;4.35;0.90;;;;;;;;;;5029697;28;20428;-47
2022/09/15 07:49:03;;;;;;;3.08;0.80;;;;;;;;;;5035052;28;20057;-48
2022/09/15 07:51:32;;;;;;;3.47;1.10;;;;;;;;;;5038500;28;20111;-50
2022/09/15 07:53:58;;;;;;;6.05;0.68;;;;;;;;;;5043446;28;20053;-49
2022/09/15 07:56:26;;;;;;;2.05;0.98;;;;;;;;;;5038842;28;20123;-49
2022/09/15 07:58:56;;;;;;;3.42;0.80;;;;;;;;;;5026320;28;20132;-48
2022/09/15 08:01:22;;;;;;;1.73;0.80;;;;;;;;;;5026274;28;20453;-49
2022/09/15 08:03:49;;;;;;;1.77;0.82;;;;;;;;;;5032543;28;20041;-48
2022/09/15 08:06:18;;;;;;;3.85;0.88;;;;;;;;;;5032020;28;20049;-52
2022/09/15 08:08:46;;;;;;;4.10;0.80;;;;;;;;;;5041432;28;20045;-49
2022/09/15 08:11:15;;;;;;;2.50;0.90;;;;;;;;;;5040685;28;20369;-49
2022/09/15 08:13:42;;;;;;;4.05;1.15;;;;;;;;;;5033309;28;20061;-50
2022/09/15 08:16:09;;;;;;;4.88;1.20;;;;;;;;;;5031526;28;20053;-48
2022/09/15 08:18:40;;;;;;;2.63;0.63;;;;;;;;;;5032460;28;20060;-48
2022/09/15 08:21:09;;;;;;;3.13;0.80;;;;;;;;;;5043204;28;20060;-48
2022/09/15 08:23:35;;;;;;;5.68;0.82;;;;;;;;;;5042229;28;20052;-49
2022/09/15 08:26:12;;;;;;;10.43;1.13;;;;;;;;;;5034906;28;20457;-49
2022/09/15 08:28:40;;;;;;;8.63;0.85;;;;;;;;;;5037505;28;20449;-53
2022/09/15 08:31:10;;;;;;;3.65;0.82;;;;;;;;;;5046544;28;20072;-50
2022/09/15 08:33:40;;;;;;;4.82;0.88;;;;;;;;;;5048368;28;20128;-49
2022/09/15 08:36:10;;;;;;;13.20;1.55;;;;;;;;;;5039753;28;20052;-51
2022/09/15 08:38:38;;;;;;;10.07;1.35;;;;;;;;;;5047458;28;20053;-50
2022/09/15 08:41:14;;;;;;;4.95;0.90;;;;;;;;;;5038934;28;20053;-50
2022/09/15 08:43:44;;;;;;;6.20;1.10;;;;;;;;;;5041004;28;20077;-48
2022/09/15 08:46:15;;;;;;;6.13;0.98;;;;;;;;;;5050492;28;20140;-51
2022/09/15 08:48:48;;;;;;;12.00;1.20;;;;;;;;;;5030858;28;20064;-48
2022/09/15 08:51:18;;;;;;;12.45;1.25;;;;;;;;;;5037545;28;20050;-51
2022/09/15 08:53:48;;;;;;;2.78;0.70;;;;;;;;;;5044780;28;20052;-48
2022/09/15 08:56:19;;;;;;;10.05;1.23;;;;;;;;;;5045948;28;20049;-48
2022/09/15 08:58:48;;;;;;;4.10;0.98;;;;;;;;;;5039923;28;20513;-47
2022/09/15 09:01:24;;;;;;;5.20;1.20;;;;;;;;;;5044222;28;20045;-48
2022/09/15 09:04:02;;;;;;;7.30;2.33;;;;;;;;;;5036363;28;20261;-47
2022/09/15 09:06:36;;;;;;;6.45;1.23;;;;;;;;;;5041185;28;20064;-47
2022/09/15 09:09:14;;;;;;;4.60;1.10;;;;;;;;;;5038939;28;20489;-46
2022/09/15 09:11:56;;;;;;;10.40;1.65;;;;;;;;;;5046233;28;20052;-48
2022/09/15 09:14:26;;;;;;;11.30;0.90;;;;;;;;;;5037786;28;20431;-47
2022/09/15 09:16:59;;;;;;;9.02;1.38;;;;;;;;;;5035539;28;20053;-48
2022/09/15 09:19:38;;;;;;;5.13;0.88;;;;;;;;;;5027514;28;20068;-46
2022/09/15 09:22:07;;;;;;;4.97;1.00;;;;;;;;;;5046028;28;20053;-47
2022/09/15 09:24:46;;;;;;;3.97;0.93;;;;;;;;;;5039732;28;20049;-49
2022/09/15 09:27:17;;;;;;;2.80;1.00;;;;;;;;;;5038982;28;20050;-47
2022/09/15 09:29:48;;;;;;;6.57;1.00;;;;;;;;;;5035091;28;20073;-48
2022/09/15 09:32:18;;;;;;;3.25;0.70;;;;;;;;;;5043785;28;20060;-49
2022/09/15 09:34:47;;;;;;;6.10;1.08;;;;;;;;;;5041239;28;20053;-49
2022/09/15 09:37:15;;;;;;;6.78;1.33;;;;;;;;;;5047107;28;20052;-50
2022/09/15 09:39:42;;;;;;;6.22;0.80;;;;;;;;;;5040437;28;20072;-48
2022/09/15 09:42:14;;;;;;;2.70;1.02;;;;;;;;;;5035482;28;20064;-47
2022/09/15 09:44:41;;;;;;;6.15;1.52;;;;;;;;;;5045196;28;20052;-47
2022/09/15 09:47:12;;;;;;;6.93;1.08;;;;;;;;;;5045724;28;20049;-47
2022/09/15 09:49:42;;;;;;;3.30;1.00;;;;;;;;;;5037338;28;20128;-47
2022/09/15 09:52:08;;;;;;;8.15;1.27;;;;;;;;;;5038233;28;20053;-48
2022/09/15 09:54:35;;;;;;;4.88;1.05;;;;;;;;;;5040533;28;20041;-47
2022/09/15 09:57:28;;;;;;;3.50;0.88;;;;;;;;;;5042426;28;20053;-49
2022/09/15 09:59:56;;;;;;;1.75;0.63;;;;;;;;;;5033995;28;20050;-50
2022/09/15 10:02:25;;;;;;;3.67;0.73;;;;;;;;;;5034457;28;20064;-51
2022/09/15 10:04:53;;;;;;;7.22;0.88;;;;;;;;;;5035659;28;20053;-48
2022/09/15 10:07:23;;;;;;;1.73;0.57;;;;;;;;;;5042575;28;20673;-48
2022/09/15 10:09:54;;;;;;;5.18;0.90;;;;;;;;;;5041462;28;20049;-50
2022/09/15 10:12:29;;;;;;;5.28;1.10;;;;;;;;;;5035568;28;20049;-50
2022/09/15 10:15:02;;;;;;;2.63;0.85;;;;;;;;;;5036666;28;20481;-49
2022/09/15 10:17:38;;;;;;;6.00;0.88;;;;;;;;;;5027993;28;20045;-49
2022/09/15 10:20:20;;;;;;;7.03;0.95;;;;;;;;;;5040188;28;20045;-49
2022/09/15 10:22:49;;;;;;;8.60;0.93;;;;;;;;;;5034037;28;20053;-50
2022/09/15 10:25:30;;;;;;;3.80;0.70;;;;;;;;;;5036689;28;20042;-47
2022/09/15 10:28:17;;;;;;;5.20;0.85;;;;;;;;;;5041972;28;20049;-49
2022/09/15 10:30:58;;;;;;;2.85;0.93;;;;;;;;;;5037896;28;20136;-49
2022/09/15 10:33:26;;;;;;;19.70;1.88;;;;;;;;;;5030715;28;20495;-50
2022/09/15 10:35:54;;;;;;;3.08;0.60;;;;;;;;;;5033878;28;20049;-48
2022/09/15 10:38:26;;;;;;;2.80;0.65;;;;;;;;;;5045907;28;20052;-48
2022/09/15 10:41:03;;;;;;;2.13;0.60;;;;;;;;;;5035484;28;20079;-49
2022/09/15 10:43:34;;;;;;;7.80;0.60;;;;;;;;;;5037913;28;20049;-49
2022/09/15 10:46:12;;;;;;;9.98;1.10;;;;;;;;;;5044606;28;20057;-48
2022/09/15 10:48:49;;;;;;;2.05;0.68;;;;;;;;;;5034237;28;20455;-48
2022/09/15 10:51:27;;;;;;;4.80;0.57;;;;;;;;;;5035137;28;20060;-47
2022/09/15 10:54:14;;;;;;;2.35;0.73;;;;;;;;;;5039027;28;20049;-48
2022/09/15 10:56:51;;;;;;;2.33;0.60;;;;;;;;;;5036814;28;20050;-47
2022/09/15 10:59:22;;;;;;;2.35;0.60;;;;;;;;;;5035470;28;20045;-47
2022/09/15 11:02:03;;;;;;;3.75;0.85;;;;;;;;;;5041805;28;20072;-47
2022/09/15 11:04:48;;;;;;;4.07;0.75;;;;;;;;;;5040003;28;20081;-50
2022/09/15 11:07:33;;;;;;;3.35;0.80;;;;;;;;;;5029121;28;20471;-46
2022/09/15 11:10:07;;;;;;;2.57;0.50;;;;;;;;;;5030448;28;20061;-53
2022/09/15 11:12:46;;;;;;;8.67;1.00;;;;;;;;;;5038225;28;20298;-50
2022/09/15 11:15:21;;;;;;;5.13;0.80;;;;;;;;;;5042303;28;20041;-50
2022/09/15 11:18:02;;;;;;;9.65;1.25;;;;;;;;;;5039467;28;20065;-47
2022/09/15 11:20:55;;;;;;;5.22;0.80;;;;;;;;;;5027061;28;20042;-48
2022/09/15 11:23:31;;;;;;;5.43;1.25;;;;;;;;;;5035344;28;20054;-48
2022/09/15 11:26:00;;;;;;;2.55;0.73;;;;;;;;;;5038868;28;20063;-48
2022/09/15 11:28:37;;;;;;;13.32;1.10;;;;;;;;;;5040372;28;20045;-46
2022/09/15 11:31:07;;;;;;;9.13;1.02;;;;;;;;;;5035411;28;20061;-47
2022/09/15 11:33:38;;;;;;;4.13;0.60;;;;;;;;;;5033378;28;20068;-48
2022/09/15 11:36:09;;;;;;;3.88;0.80;;;;;;;;;;5040902;28;20072;-48
2022/09/15 11:38:41;;;;;;;12.60;1.20;;;;;;;;;;5044700;28;20465;-47
2022/09/15 11:41:20;;;;;;;2.25;0.95;;;;;;;;;;5035829;28;20053;-47
2022/09/15 11:43:53;;;;;;;19.80;1.73;;;;;;;;;;5038695;28;20128;-47
2022/09/15 11:46:25;;;;;;;19.27;2.10;;;;;;;;;;5041989;28;20053;-48
2022/09/15 11:48:58;;;;;;;8.50;1.00;;;;;;;;;;5039150;28;20124;-47
2022/09/15 11:51:29;;;;;;;5.07;0.88;;;;;;;;;;5027750;28;20049;-45
2022/09/15 11:54:01;;;;;;;4.72;0.88;;;;;;;;;;5048353;28;20102;-46
2022/09/15 11:56:32;;;;;;;2.45;0.90;;;;;;;;;;5038662;28;20136;-45
2022/09/15 11:59:08;;;;;;;2.60;0.50;;;;;;;;;;5041359;28;20037;-43
2022/09/15 12:01:42;;;;;;;1.38;0.60;;;;;;;;;;5043106;28;20378;-45
2022/09/15 12:04:13;;;;;;;2.65;0.77;;;;;;;;;;5029105;28;20061;-44
2022/09/15 12:06:43;;;;;;;1.70;0.50;;;;;;;;;;5034266;28;20534;-45
2022/09/15 12:09:12;;;;;;;1.45;0.50;;;;;;;;;;5033913;28;20053;-46
2022/09/15 12:11:42;;;;;;;2.38;0.60;;;;;;;;;;5035332;28;20064;-46
2022/09/15 12:14:10;;;;;;;3.60;0.63;;;;;;;;;;5036408;28;20061;-46
2022/09/15 12:16:38;;;;;;;1.90;0.50;;;;;;;;;;5033173;28;20057;-47
2022/09/15 12:19:10;;;;;;;1.88;0.70;;;;;;;;;;5033876;28;20501;-47
2022/09/15 12:21:42;;;;;;;4.70;0.57;;;;;;;;;;5025791;28;20170;-47
2022/09/15 12:24:14;;;;;;;3.22;0.70;;;;;;;;;;5034356;28;20673;-47
2022/09/15 12:26:42;;;;;;;8.10;0.90;;;;;;;;;;5034417;28;20052;-49
2022/09/15 12:29:27;;;;;;;6.97;0.70;;;;;;;;;;5031423;28;20055;-47
2022/09/15 12:32:17;;;;;;;2.57;0.60;;;;;;;;;;5033087;28;20058;-47
2022/09/15 12:34:55;;;;;;;10.93;1.38;;;;;;;;;;5038340;28;20288;-47
2022/09/15 12:37:26;;;;;;;2.83;0.55;;;;;;;;;;5037903;28;20052;-47
2022/09/15 12:39:52;;;;;;;3.00;0.60;;;;;;;;;;5025312;28;20436;-48
2022/09/15 12:42:22;;;;;;;10.50;0.90;;;;;;;;;;5029637;28;20073;-48
2022/09/15 12:44:55;;;;;;;2.40;0.50;;;;;;;;;;5035620;28;20064;-49
2022/09/15 12:47:24;;;;;;;3.65;0.57;;;;;;;;;;5048213;28;20045;-45
2022/09/15 12:49:52;;;;;;;18.95;1.52;;;;;;;;;;5036764;28;20056;-45
2022/09/15 12:52:24;;;;;;;2.00;0.35;;;;;;;;;;5038760;28;20132;-46
2022/09/15 12:54:59;;;;;;;10.85;1.13;;;;;;;;;;5042057;28;20049;-47
2022/09/15 12:57:27;;;;;;;1.75;0.30;;;;;;;;;;5025500;28;20059;-46
2022/09/15 13:00:14;;;;;;;6.80;0.90;;;;;;;;;;5036603;28;20374;-49
2022/09/15 13:02:46;;;;;;;4.43;0.80;;;;;;;;;;5026030;28;20069;-48
2022/09/15 13:05:14;;;;;;;8.75;0.93;;;;;;;;;;5035843;28;20049;-47
2022/09/15 13:07:57;;;;;;;11.82;1.00;;;;;;;;;;5037605;28;20036;-48
2022/09/15 13:10:34;;;;;;;3.85;0.60;;;;;;;;;;5044182;28;20045;-48
2022/09/15 13:13:18;;;;;;;3.67;0.73;;;;;;;;;;5037133;28;20045;-48
2022/09/15 13:15:46;;;;;;;2.83;0.50;;;;;;;;;;5031669;28;20050;-46
2022/09/15 13:18:16;;;;;;;3.60;0.60;;;;;;;;;;5027981;28;20053;-47
2022/09/15 13:20:50;;;;;;;6.22;0.70;;;;;;;;;;5042861;28;20045;-48
2022/09/15 13:23:22;;;;;;;5.35;0.95;;;;;;;;;;5031344;28;20052;-48
2022/09/15 13:25:53;;;;;;;1.20;0.45;;;;;;;;;;5033167;28;20045;-51
2022/09/15 13:28:23;;;;;;;3.22;0.60;;;;;;;;;;5037015;28;20655;-49
2022/09/15 13:30:56;;;;;;;12.32;1.48;;;;;;;;;;5037599;28;20136;-47
2022/09/15 13:33:33;;;;;;;4.10;0.90;;;;;;;;;;5036634;28;20044;-47
2022/09/15 13:36:04;;;;;;;7.82;1.25;;;;;;;;;;5036715;28;20038;-47
2022/09/15 13:38:50;;;;;;;7.13;0.70;;;;;;;;;;5026149;28;20076;-47
2022/09/15 13:41:36;;;;;;;3.00;0.70;;;;;;;;;;5032946;28;20061;-49
2022/09/15 13:44:24;;;;;;;5.13;0.90;;;;;;;;;;5039589;28;20053;-46
2022/09/15 13:47:02;;;;;;;18.45;1.33;;;;;;;;;;5024247;28;20371;-48
2022/09/15 13:49:45;;;;;;;16.27;1.85;;;;;;;;;;5033942;28;20048;-48
2022/09/15 13:52:21;;;;;;;4.63;1.13;;;;;;;;;;5031624;28;20045;-48
2022/09/15 13:55:08;;;;;;;10.98;1.20;;;;;;;;;;5043531;28;20049;-47
2022/09/15 13:57:40;;;;;;;25.60;2.15;;;;;;;;;;5026212;28;20060;-45
2022/09/15 14:00:13;;;;;;;8.75;0.80;;;;;;;;;;5037880;28;20148;-48
2022/09/15 14:02:45;;;;;;;5.93;0.85;;;;;;;;;;5032917;28;20054;-48
2022/09/15 14:05:12;;;;;;;6.72;1.13;;;;;;;;;;5035327;28;20542;-49
2022/09/15 14:07:41;;;;;;;6.32;1.10;;;;;;;;;;5034489;28;20462;-49
2022/09/15 14:10:21;;;;;;;13.77;1.50;;;;;;;;;;5035489;28;20085;-49
2022/09/15 14:12:50;;;;;;;4.25;0.70;;;;;;;;;;5035195;28;20089;-51
2022/09/15 14:15:20;;;;;;;10.80;0.88;;;;;;;;;;5036767;28;20041;-49
2022/09/15 14:17:57;;;;;;;11.35;0.80;;;;;;;;;;5025059;28;20055;-49
2022/09/15 14:20:26;;;;;;;3.92;0.60;;;;;;;;;;5024935;28;20054;-46
2022/09/15 14:22:54;;;;;;;4.65;0.80;;;;;;;;;;5036547;28;20060;-47
2022/09/15 14:25:24;;;;;;;4.32;0.60;;;;;;;;;;5040035;28;20048;-47
2022/09/15 14:27:54;;;;;;;7.25;0.90;;;;;;;;;;5034789;28;20049;-47
2022/09/15 14:30:30;;;;;;;5.05;0.75;;;;;;;;;;5026927;28;20054;-48
2022/09/15 14:33:05;;;;;;;5.10;0.57;;;;;;;;;;5037042;28;20072;-47
2022/09/15 14:35:36;;;;;;;3.83;0.80;;;;;;;;;;5032372;28;20049;-50
2022/09/15 14:38:02;;;;;;;5.95;0.77;;;;;;;;;;5040595;28;20045;-51
2022/09/15 14:40:31;;;;;;;6.55;0.90;;;;;;;;;;5029120;28;20045;-47
2022/09/15 14:43:00;;;;;;;2.85;0.70;;;;;;;;;;5026988;28;20057;-46
2022/09/15 14:45:40;;;;;;;3.30;0.50;;;;;;;;;;5030641;28;20046;-47
2022/09/15 14:48:14;;;;;;;4.22;0.85;;;;;;;;;;5027011;28;20045;-52
2022/09/15 14:50:42;;;;;;;3.25;0.52;;;;;;;;;;5027727;28;20139;-50
2022/09/15 14:53:12;;;;;;;1.50;0.43;;;;;;;;;;5031973;28;20049;-53
2022/09/15 14:55:48;;;;;;;7.05;0.93;;;;;;;;;;5023801;28;20045;-50
2022/09/15 14:58:18;;;;;;;0.82;0.32;;;;;;;;;;5022680;28;20050;-54
2022/09/15 15:00:52;;;;;;;3.15;0.60;;;;;;;;;;5032243;28;20045;-50
2022/09/15 15:03:29;;;;;;;4.05;0.65;;;;;;;;;;5027192;28;20057;-51
2022/09/15 15:06:00;;;;;;;2.03;0.50;;;;;;;;;;5025569;28;20143;-51
2022/09/15 15:08:37;;;;;;;4.45;0.60;;;;;;;;;;5032400;28;20049;-50
2022/09/15 15:11:06;;;;;;;2.33;0.50;;;;;;;;;;5032956;28;20077;-51
2022/09/15 15:13:32;;;;;;;2.83;1.05;;;;;;;;;;5025929;28;20466;-51
2022/09/15 15:16:00;;;;;;;2.40;0.60;;;;;;;;;;5029441;28;20061;-54
2022/09/15 15:18:29;;;;;;;1.10;0.43;;;;;;;;;;5029684;28;20669;-52